Time;durP1;ratioP1;P1;durP2;ratioP2;P2;SDS_P1;SDS_P2;PMS_P1;PMS_P2;Temp;Humidity;BMP_temperature;BMP_pressure;BME280_temperature;BME280_humidity;BME280_pressure;Samples;Min_cycle;Max_cycle;Signal;HPM_P1;HPM_P2
2023/04/12 00:01:57;;;;;;;4.13;1.10;;;;;15.90;100332.00;;;;5005880;28;20236;-82
2023/04/12 00:04:27;;;;;;;2.70;0.80;;;;;15.90;100320.00;;;;5004440;28;20204;-81
2023/04/12 00:06:56;;;;;;;1.77;0.75;;;;;15.80;100304.00;;;;5004967;28;20193;-83
2023/04/12 00:09:24;;;;;;;1.48;0.60;;;;;15.80;100321.00;;;;5001944;28;20543;-82
2023/04/12 00:11:51;;;;;;;1.38;0.82;;;;;15.80;100298.00;;;;5007388;28;20322;-82
2023/04/12 00:14:18;;;;;;;2.40;0.80;;;;;15.70;100298.00;;;;5006960;28;20215;-84
2023/04/12 00:16:46;;;;;;;1.70;0.60;;;;;15.70;100297.00;;;;5004696;28;20208;-81
2023/04/12 00:19:15;;;;;;;1.85;0.70;;;;;15.70;100288.00;;;;5003010;28;20201;-81
2023/04/12 00:21:42;;;;;;;2.40;0.60;;;;;15.60;100275.00;;;;5003805;28;20404;-82
2023/04/12 00:24:11;;;;;;;3.88;0.50;;;;;15.60;100268.00;;;;5005144;28;20201;-81
2023/04/12 00:26:38;;;;;;;1.40;0.40;;;;;15.60;100258.00;;;;5006661;28;20956;-82
2023/04/12 00:29:06;;;;;;;1.42;0.40;;;;;15.50;100252.00;;;;5005873;28;20211;-81
2023/04/12 00:31:33;;;;;;;1.65;0.40;;;;;15.50;100246.00;;;;5007699;28;20197;-82
2023/04/12 00:34:00;;;;;;;2.85;0.68;;;;;15.50;100244.00;;;;5006625;28;20201;-82
2023/04/12 00:36:28;;;;;;;2.13;0.65;;;;;15.40;100233.00;;;;5000547;28;20217;-81
2023/04/12 00:38:55;;;;;;;0.90;0.35;;;;;15.40;100228.00;;;;5007697;28;20204;-82
2023/04/12 00:41:27;;;;;;;1.38;0.30;;;;;15.30;100232.00;;;;5007215;28;20197;-83
2023/04/12 00:43:54;;;;;;;1.15;0.30;;;;;15.30;100219.00;;;;5007372;28;20255;-82
2023/04/12 00:46:21;;;;;;;0.68;0.40;;;;;15.30;100206.00;;;;5008267;28;20217;-82
2023/04/12 00:48:49;;;;;;;1.38;0.50;;;;;15.30;100202.00;;;;5007712;28;20292;-81
2023/04/12 00:51:16;;;;;;;3.42;0.70;;;;;15.20;100189.00;;;;5008369;28;20728;-80
2023/04/12 00:53:44;;;;;;;1.50;0.30;;;;;15.20;100185.00;;;;5010124;28;20208;-81
2023/04/12 00:56:12;;;;;;;1.95;0.60;;;;;15.20;100176.00;;;;5011458;28;20200;-81
2023/04/12 00:58:41;;;;;;;1.52;0.52;;;;;15.20;100165.00;;;;5010005;28;20556;-81
2023/04/12 01:01:09;;;;;;;1.92;0.73;;;;;15.20;100161.00;;;;5010331;28;20239;-80
2023/04/12 01:03:41;;;;;;;2.75;0.93;;;;;15.10;100153.00;;;;5011519;28;20212;-82
2023/04/12 01:06:13;;;;;;;0.70;0.30;;;;;15.10;100150.00;;;;5010716;28;20609;-80
2023/04/12 01:08:52;;;;;;;0.80;0.40;;;;;15.00;100141.00;;;;5010113;28;20207;-81
2023/04/12 01:11:26;;;;;;;1.55;0.60;;;;;15.10;100138.00;;;;5011425;28;20640;-80
2023/04/12 01:14:03;;;;;;;2.17;0.82;;;;;15.00;100120.00;;;;5011851;28;20201;-81
2023/04/12 01:16:36;;;;;;;2.25;0.60;;;;;15.00;100121.00;;;;5007228;28;20212;-82
2023/04/12 01:19:16;;;;;;;1.10;0.55;;;;;15.00;100112.00;;;;5010295;28;20197;-81
2023/04/12 01:21:57;;;;;;;1.40;0.70;;;;;15.00;100098.00;;;;5010897;28;20201;-81
2023/04/12 01:24:36;;;;;;;2.25;0.85;;;;;15.00;100089.00;;;;5007847;28;20201;-81
2023/04/12 01:27:06;;;;;;;3.75;0.77;;;;;15.00;100080.00;;;;5011280;28;20315;-80
2023/04/12 01:29:35;;;;;;;3.42;0.82;;;;;15.00;100070.00;;;;5006547;28;20252;-80
2023/04/12 01:32:04;;;;;;;1.67;0.73;;;;;15.00;100064.00;;;;5008297;28;21215;-80
2023/04/12 01:34:35;;;;;;;3.50;0.60;;;;;15.00;100064.00;;;;5009717;28;20197;-81
2023/04/12 01:37:03;;;;;;;2.60;0.77;;;;;15.00;100049.00;;;;5007940;28;20667;-81
2023/04/12 01:39:32;;;;;;;2.30;0.60;;;;;15.00;100042.00;;;;5006456;28;20193;-82
2023/04/12 01:41:59;;;;;;;1.45;0.50;;;;;15.00;100038.00;;;;5006586;28;20205;-81
2023/04/12 01:44:27;;;;;;;3.70;0.70;;;;;15.00;100033.00;;;;5008826;28;20208;-81
2023/04/12 01:46:56;;;;;;;1.67;0.50;;;;;15.00;100022.00;;;;5008012;28;20224;-80
2023/04/12 01:49:28;;;;;;;2.38;0.85;;;;;14.90;100022.00;;;;5005912;28;20201;-81
2023/04/12 01:52:03;;;;;;;2.13;0.47;;;;;14.90;100008.00;;;;5006465;28;20197;-82
2023/04/12 01:54:34;;;;;;;3.78;0.77;;;;;14.90;100011.00;;;;5007477;28;20201;-82
2023/04/12 01:57:03;;;;;;;2.58;1.08;;;;;14.90;100001.00;;;;5007888;28;20235;-81
2023/04/12 01:59:36;;;;;;;0.88;0.50;;;;;14.90;100006.00;;;;5008430;28;20197;-81
2023/04/12 02:02:05;;;;;;;2.03;0.88;;;;;14.90;99991.00;;;;5008180;28;20702;-81
2023/04/12 02:04:35;;;;;;;1.33;0.60;;;;;14.90;99988.00;;;;5007018;28;20584;-82
2023/04/12 02:07:02;;;;;;;0.93;0.47;;;;;14.90;99991.00;;;;5005161;28;20231;-81
2023/04/12 02:09:30;;;;;;;2.08;0.50;;;;;14.90;99978.00;;;;5006203;28;20205;-80
2023/04/12 02:11:57;;;;;;;2.55;0.50;;;;;14.90;99965.00;;;;5008315;28;20228;-81
2023/04/12 02:14:26;;;;;;;1.88;0.60;;;;;14.90;99948.00;;;;5005961;28;20197;-81
2023/04/12 02:16:54;;;;;;;2.63;0.70;;;;;14.90;99949.00;;;;4998620;28;20246;-81
2023/04/12 02:19:23;;;;;;;1.92;0.70;;;;;14.90;99943.00;;;;5004158;28;20219;-81
2023/04/12 02:21:51;;;;;;;4.93;0.77;;;;;14.90;99936.00;;;;5007410;28;20193;-80
2023/04/12 02:24:18;;;;;;;2.05;0.77;;;;;14.90;99921.00;;;;5008513;28;20750;-81
2023/04/12 02:26:48;;;;;;;1.58;0.50;;;;;14.90;99919.00;;;;5009316;28;20228;-81
2023/04/12 02:29:16;;;;;;;2.10;0.60;;;;;14.90;99902.00;;;;5008125;28;20201;-80
2023/04/12 02:31:43;;;;;;;1.20;0.40;;;;;14.90;99901.00;;;;5003188;28;20216;-80
2023/04/12 02:34:12;;;;;;;2.33;0.70;;;;;14.90;99897.00;;;;5007408;28;20682;-81
2023/04/12 02:36:40;;;;;;;1.40;0.70;;;;;14.80;99888.00;;;;5008485;28;20197;-81
2023/04/12 02:39:08;;;;;;;1.10;0.52;;;;;14.90;99880.00;;;;5008674;28;20596;-81
2023/04/12 02:41:36;;;;;;;1.38;0.65;;;;;14.90;99887.00;;;;5008982;28;20209;-81
2023/04/12 02:44:03;;;;;;;1.80;0.60;;;;;14.90;99870.00;;;;5005206;28;20204;-81
2023/04/12 02:46:30;;;;;;;3.05;0.95;;;;;14.90;99861.00;;;;5009239;28;20236;-81
2023/04/12 02:48:58;;;;;;;3.17;0.82;;;;;14.90;99858.00;;;;5001094;28;20672;-81
2023/04/12 02:51:26;;;;;;;2.67;0.80;;;;;14.90;99851.00;;;;5007097;28;20197;-81
2023/04/12 02:53:55;;;;;;;0.90;0.45;;;;;14.80;99836.00;;;;5006401;28;20248;-81
2023/04/12 02:56:23;;;;;;;2.53;0.98;;;;;14.80;99830.00;;;;5009317;28;20639;-80
2023/04/12 02:58:50;;;;;;;2.55;0.80;;;;;14.80;99828.00;;;;5009039;28;20670;-80
2023/04/12 03:01:18;;;;;;;2.03;0.70;;;;;14.80;99828.00;;;;5009492;28;20236;-79
2023/04/12 03:03:45;;;;;;;1.63;0.85;;;;;14.80;99812.00;;;;5009609;28;20228;-79
2023/04/12 03:06:13;;;;;;;2.15;0.70;;;;;14.80;99799.00;;;;4999551;28;20226;-80
2023/04/12 03:08:40;;;;;;;1.30;0.70;;;;;14.80;99798.00;;;;4989430;28;20197;-83
2023/04/12 03:11:09;;;;;;;1.75;0.95;;;;;14.80;99785.00;;;;5004951;28;20580;-81
2023/04/12 03:13:36;;;;;;;2.08;0.60;;;;;14.80;99785.00;;;;5005990;28;21022;-81
2023/04/12 03:16:22;;;;;;;2.25;1.02;;;;;14.70;99783.00;;;;5009140;28;20201;-80
2023/04/12 03:18:50;;;;;;;1.60;0.70;;;;;14.80;99784.00;;;;5003135;28;20255;-80
2023/04/12 03:21:18;;;;;;;3.15;0.80;;;;;14.80;99776.00;;;;5006941;28;20212;-80
2023/04/12 03:23:45;;;;;;;1.67;0.55;;;;;14.80;99767.00;;;;4997979;28;20201;-80
2023/04/12 03:26:14;;;;;;;1.33;0.50;;;;;14.80;99770.00;;;;5006306;28;20228;-80
2023/04/12 03:28:41;;;;;;;2.47;0.65;;;;;14.80;99770.00;;;;5006187;28;20726;-80
2023/04/12 03:31:11;;;;;;;1.95;0.63;;;;;14.80;99758.00;;;;5006237;28;20207;-80
2023/04/12 03:33:38;;;;;;;3.00;0.70;;;;;14.80;99760.00;;;;5007415;28;20205;-81
2023/04/12 03:36:07;;;;;;;2.10;0.50;;;;;14.80;99760.00;;;;5008109;28;20204;-81
2023/04/12 03:38:34;;;;;;;1.35;0.45;;;;;14.80;99756.00;;;;5007746;28;20201;-80
2023/04/12 03:41:01;;;;;;;2.35;0.70;;;;;14.70;99750.00;;;;5006828;28;20205;-80
2023/04/12 03:43:34;;;;;;;3.28;0.77;;;;;14.70;99739.00;;;;5006767;28;20201;-81
2023/04/12 03:46:02;;;;;;;1.65;0.98;;;;;14.70;99733.00;;;;5007487;28;21008;-80
2023/04/12 03:48:29;;;;;;;2.28;0.63;;;;;14.70;99730.00;;;;4997901;28;20284;-80
2023/04/12 03:50:58;;;;;;;2.85;0.60;;;;;14.70;99730.00;;;;5004325;28;20280;-80
2023/04/12 03:53:25;;;;;;;2.35;0.93;;;;;14.70;99720.00;;;;5003852;28;20577;-80
2023/04/12 03:55:53;;;;;;;3.90;0.70;;;;;14.70;99716.00;;;;5007064;28;20252;-80
2023/04/12 03:58:20;;;;;;;1.58;0.70;;;;;14.70;99714.00;;;;5006843;28;20693;-79
2023/04/12 04:00:49;;;;;;;0.73;0.50;;;;;14.60;99699.00;;;;5007627;28;20236;-79
2023/04/12 04:03:17;;;;;;;1.42;0.50;;;;;14.60;99700.00;;;;4995413;28;20582;-80
2023/04/12 04:05:44;;;;;;;1.38;0.60;;;;;14.60;99690.00;;;;5008700;28;20199;-80
2023/04/12 04:08:12;;;;;;;1.58;0.60;;;;;14.60;99689.00;;;;5008852;28;20204;-79
2023/04/12 04:10:40;;;;;;;1.10;0.40;;;;;14.60;99676.00;;;;5008941;28;20208;-79
2023/04/12 04:13:07;;;;;;;1.35;0.40;;;;;14.60;99678.00;;;;5007082;28;20663;-80
2023/04/12 04:15:34;;;;;;;2.08;0.75;;;;;14.60;99663.00;;;;5014883;28;20605;-80
2023/04/12 04:18:03;;;;;;;0.88;0.50;;;;;14.60;99658.00;;;;4996110;28;20209;-79
2023/04/12 04:20:30;;;;;;;4.82;1.15;;;;;14.60;99661.00;;;;5008552;28;20197;-79
2023/04/12 04:22:58;;;;;;;2.53;0.52;;;;;14.60;99652.00;;;;5008805;28;20203;-79
2023/04/12 04:25:28;;;;;;;1.55;0.43;;;;;14.60;99653.00;;;;5008555;28;20288;-80
2023/04/12 04:27:56;;;;;;;1.25;0.50;;;;;14.60;99642.00;;;;5008996;28;20861;-79
2023/04/12 04:30:25;;;;;;;2.90;0.73;;;;;14.60;99647.00;;;;5006846;28;20201;-78
2023/04/12 04:32:52;;;;;;;1.02;0.50;;;;;14.60;99643.00;;;;5010221;28;20224;-79
2023/04/12 04:35:22;;;;;;;2.33;0.70;;;;;14.60;99646.00;;;;5010960;28;20215;-80
2023/04/12 04:37:51;;;;;;;1.40;0.65;;;;;14.60;99646.00;;;;5011116;28;20200;-80
2023/04/12 04:40:20;;;;;;;1.20;0.60;;;;;14.60;99638.00;;;;5009834;28;20323;-80
2023/04/12 04:42:53;;;;;;;0.60;0.40;;;;;14.60;99633.00;;;;5009318;28;20240;-81
2023/04/12 04:45:25;;;;;;;2.42;0.65;;;;;14.60;99641.00;;;;5009132;28;20228;-79
2023/04/12 04:47:53;;;;;;;1.95;0.57;;;;;14.60;99640.00;;;;5009890;28;20223;-80
2023/04/12 04:50:23;;;;;;;1.60;0.80;;;;;14.60;99641.00;;;;5007096;28;20731;-80
2023/04/12 04:52:51;;;;;;;2.30;0.70;;;;;14.60;99647.00;;;;5006307;28;20204;-80
2023/04/12 04:55:19;;;;;;;1.50;0.55;;;;;14.60;99635.00;;;;5006702;28;20208;-80
2023/04/12 04:57:47;;;;;;;1.65;0.68;;;;;14.60;99639.00;;;;5009869;28;20216;-80
2023/04/12 05:00:15;;;;;;;1.50;0.60;;;;;14.60;99636.00;;;;5007448;28;20229;-80
2023/04/12 05:02:44;;;;;;;0.82;0.47;;;;;14.60;99636.00;;;;5009623;28;20227;-80
2023/04/12 05:05:12;;;;;;;1.20;0.70;;;;;14.60;99633.00;;;;5006208;28;20256;-80
2023/04/12 05:07:42;;;;;;;1.95;0.73;;;;;14.60;99631.00;;;;5001736;28;20585;-80
2023/04/12 05:10:10;;;;;;;0.80;0.40;;;;;14.60;99630.00;;;;5010902;28;20209;-80
2023/04/12 05:12:38;;;;;;;1.02;0.52;;;;;14.60;99633.00;;;;5010914;28;20757;-81
2023/04/12 05:15:06;;;;;;;0.63;0.43;;;;;14.60;99628.00;;;;5003307;28;20212;-81
2023/04/12 05:17:34;;;;;;;0.90;0.60;;;;;14.60;99619.00;;;;5010762;28;20207;-80
2023/04/12 05:20:04;;;;;;;2.25;0.80;;;;;14.60;99607.00;;;;5002127;28;20213;-80
2023/04/12 05:22:32;;;;;;;2.00;0.90;;;;;14.70;99614.00;;;;5005783;28;20197;-81
2023/04/12 05:25:01;;;;;;;2.47;0.50;;;;;14.60;99609.00;;;;5010897;28;20201;-80
2023/04/12 05:27:30;;;;;;;1.77;0.40;;;;;14.60;99605.00;;;;5009375;28;20225;-80
2023/04/12 05:29:57;;;;;;;0.65;0.40;;;;;14.70;99604.00;;;;5002371;28;20198;-80
2023/04/12 05:32:25;;;;;;;0.93;0.50;;;;;14.70;99612.00;;;;5007932;28;20208;-80
2023/04/12 05:34:52;;;;;;;1.17;0.40;;;;;14.70;99607.00;;;;5003738;28;20686;-80
2023/04/12 05:37:19;;;;;;;0.60;0.32;;;;;14.70;99614.00;;;;5003537;28;20200;-81
2023/04/12 05:39:47;;;;;;;0.70;0.40;;;;;14.70;99599.00;;;;5007307;28;20197;-82
2023/04/12 05:42:16;;;;;;;1.55;0.68;;;;;14.70;99607.00;;;;5008910;28;20193;-81
2023/04/12 05:44:44;;;;;;;0.60;0.40;;;;;14.80;99607.00;;;;5008432;28;20211;-80
2023/04/12 05:47:12;;;;;;;1.23;0.57;;;;;14.80;99595.00;;;;5009040;28;20232;-81
2023/04/12 05:49:39;;;;;;;0.60;0.32;;;;;14.80;99601.00;;;;5010199;28;20232;-81
2023/04/12 05:52:07;;;;;;;1.17;0.45;;;;;14.80;99609.00;;;;5008855;28;20828;-81
2023/04/12 05:54:34;;;;;;;1.00;0.40;;;;;14.80;99608.00;;;;5007240;28;20566;-80
2023/04/12 05:57:02;;;;;;;1.23;0.50;;;;;14.80;99619.00;;;;5008251;28;20764;-80
2023/04/12 05:59:30;;;;;;;0.73;0.57;;;;;14.80;99640.00;;;;5008725;28;20200;-80
2023/04/12 06:01:58;;;;;;;0.70;0.30;;;;;14.80;99630.00;;;;5005995;28;20244;-80
2023/04/12 06:04:25;;;;;;;1.55;0.57;;;;;14.90;99637.00;;;;5008027;28;20205;-80
2023/04/12 06:06:55;;;;;;;1.58;0.60;;;;;14.80;99636.00;;;;5006003;28;20225;-82
2023/04/12 06:09:22;;;;;;;1.52;0.45;;;;;14.90;99630.00;;;;5006869;28;20196;-79
2023/04/12 06:11:51;;;;;;;0.60;0.30;;;;;14.90;99624.00;;;;5010111;28;20224;-79
2023/04/12 06:14:18;;;;;;;1.40;0.52;;;;;14.90;99627.00;;;;4998315;28;20248;-80
2023/04/12 06:16:46;;;;;;;1.05;0.60;;;;;14.90;99627.00;;;;5008317;28;20197;-79
2023/04/12 06:19:14;;;;;;;1.00;0.50;;;;;14.90;99616.00;;;;5008577;28;20209;-80
2023/04/12 06:21:41;;;;;;;2.10;0.70;;;;;15.00;99615.00;;;;5009419;28;20765;-80
2023/04/12 06:24:09;;;;;;;0.90;0.63;;;;;15.00;99619.00;;;;5009684;28;20204;-80
2023/04/12 06:26:37;;;;;;;1.92;0.57;;;;;15.00;99620.00;;;;5009835;28;20548;-79
2023/04/12 06:29:04;;;;;;;0.95;0.65;;;;;15.00;99618.00;;;;5007870;28;20212;-79
2023/04/12 06:31:31;;;;;;;1.67;0.77;;;;;15.10;99608.00;;;;4989566;28;20202;-79
2023/04/12 06:34:00;;;;;;;0.68;0.60;;;;;15.10;99603.00;;;;4990009;28;20220;-80
2023/04/12 06:36:28;;;;;;;3.60;0.80;;;;;15.10;99614.00;;;;4991306;28;20675;-80
2023/04/12 06:38:55;;;;;;;0.77;0.70;;;;;15.10;99611.00;;;;5009025;28;20192;-80
2023/04/12 06:41:22;;;;;;;1.00;0.68;;;;;15.20;99613.00;;;;5009372;28;20197;-81
2023/04/12 06:43:50;;;;;;;1.02;0.70;;;;;15.20;99611.00;;;;5008261;28;20205;-81
2023/04/12 06:46:25;;;;;;;1.90;0.95;;;;;15.20;99610.00;;;;5007266;28;20229;-80
2023/04/12 06:48:52;;;;;;;1.20;0.60;;;;;15.30;99609.00;;;;5002615;28;20286;-80
2023/04/12 06:51:21;;;;;;;2.25;0.80;;;;;15.30;99600.00;;;;5009021;28;20263;-79
2023/04/12 06:53:49;;;;;;;1.33;0.90;;;;;15.40;99598.00;;;;5008887;28;20203;-79
2023/04/12 06:56:16;;;;;;;2.65;0.68;;;;;15.40;99598.00;;;;5007592;28;20651;-80
2023/04/12 06:58:44;;;;;;;0.73;0.73;;;;;15.40;99590.00;;;;5007726;28;20201;-80
2023/04/12 07:01:13;;;;;;;3.38;0.80;;;;;15.50;99598.00;;;;4988772;28;20241;-80
2023/04/12 07:03:40;;;;;;;1.13;0.85;;;;;15.50;99610.00;;;;4991682;28;20198;-80
2023/04/12 07:06:07;;;;;;;1.73;0.82;;;;;15.50;99609.00;;;;5008945;28;20209;-80
2023/04/12 07:08:37;;;;;;;1.85;1.20;;;;;15.50;99609.00;;;;5008286;28;20227;-80
2023/04/12 07:11:05;;;;;;;0.90;0.70;;;;;15.60;99598.00;;;;5008205;28;20208;-80
2023/04/12 07:13:32;;;;;;;1.98;0.73;;;;;15.60;99594.00;;;;5007593;28;21032;-80
2023/04/12 07:16:00;;;;;;;2.22;0.95;;;;;15.70;99606.00;;;;5007304;28;20336;-80
2023/04/12 07:18:27;;;;;;;1.58;0.77;;;;;15.70;99605.00;;;;5008197;28;20595;-80
2023/04/12 07:20:56;;;;;;;1.30;0.80;;;;;15.70;99599.00;;;;5000828;28;20252;-80
2023/04/12 07:23:24;;;;;;;2.97;1.33;;;;;15.80;99596.00;;;;4989523;28;20208;-80
2023/04/12 07:25:52;;;;;;;1.67;1.05;;;;;15.80;99590.00;;;;4988579;28;20201;-80
2023/04/12 07:28:20;;;;;;;3.03;1.30;;;;;15.90;99593.00;;;;5008273;28;20243;-79
2023/04/12 07:30:47;;;;;;;2.83;0.90;;;;;15.90;99595.00;;;;5009164;28;20220;-80
2023/04/12 07:33:15;;;;;;;1.95;0.95;;;;;16.00;99603.00;;;;5009424;28;20208;-80
2023/04/12 07:35:42;;;;;;;1.85;1.13;;;;;16.00;99598.00;;;;5008041;28;20255;-80
2023/04/12 07:38:09;;;;;;;2.10;1.30;;;;;16.00;99594.00;;;;4999214;28;20209;-80
2023/04/12 07:40:37;;;;;;;2.53;1.13;;;;;16.10;99591.00;;;;4999438;28;20201;-79
2023/04/12 07:43:05;;;;;;;4.43;2.03;;;;;16.10;99592.00;;;;5009218;28;20189;-80
2023/04/12 07:45:33;;;;;;;4.22;1.40;;;;;16.10;99591.00;;;;5009336;28;20216;-80
2023/04/12 07:48:00;;;;;;;4.68;1.35;;;;;16.20;99591.00;;;;5007223;28;20228;-80
2023/04/12 07:50:27;;;;;;;1.58;1.00;;;;;16.20;99590.00;;;;5007899;28;20201;-80
2023/04/12 07:53:17;;;;;;;3.38;1.20;;;;;16.30;99594.00;;;;5009355;28;20193;-81
2023/04/12 07:55:58;;;;;;;5.22;0.93;;;;;16.30;99589.00;;;;5006377;28;20197;-80
2023/04/12 07:58:29;;;;;;;2.60;1.20;;;;;16.40;99589.00;;;;5008048;28;20201;-80
2023/04/12 08:00:57;;;;;;;2.90;1.08;;;;;16.40;99594.00;;;;5013229;28;20224;-80
2023/04/12 08:03:25;;;;;;;1.65;1.15;;;;;16.50;99593.00;;;;5014197;28;20205;-80
2023/04/12 08:05:53;;;;;;;3.63;1.30;;;;;16.50;99587.00;;;;5014743;28;20243;-81
2023/04/12 08:08:21;;;;;;;4.43;1.33;;;;;16.60;99588.00;;;;5015070;28;20227;-80
2023/04/12 08:10:50;;;;;;;3.97;1.42;;;;;16.60;99582.00;;;;5014169;28;20197;-81
2023/04/12 08:13:17;;;;;;;3.28;1.10;;;;;16.70;99584.00;;;;4996451;28;20718;-81
2023/04/12 08:15:47;;;;;;;7.45;1.60;;;;;16.80;99580.00;;;;4995882;28;20213;-80
2023/04/12 08:18:14;;;;;;;7.88;2.05;;;;;16.90;99572.00;;;;4995061;28;20198;-81
2023/04/12 08:20:42;;;;;;;4.75;1.80;;;;;17.10;99572.00;;;;5013867;28;20203;-80
2023/04/12 08:23:16;;;;;;;6.03;1.60;;;;;17.20;99570.00;;;;5014749;28;20205;-80
2023/04/12 08:25:43;;;;;;;3.33;0.98;;;;;17.30;99562.00;;;;5013526;28;20197;-80
2023/04/12 08:28:11;;;;;;;5.20;1.40;;;;;17.30;99576.00;;;;4999771;28;20225;-80
2023/04/12 08:30:38;;;;;;;6.40;1.23;;;;;17.40;99565.00;;;;4995120;28;20205;-80
2023/04/12 08:33:07;;;;;;;5.70;1.05;;;;;17.50;99571.00;;;;4994928;28;20201;-80
2023/04/12 08:35:34;;;;;;;7.55;1.73;;;;;17.50;99557.00;;;;5014440;28;20196;-80
2023/04/12 08:38:06;;;;;;;6.72;1.45;;;;;17.60;99562.00;;;;5014745;28;20421;-80
2023/04/12 08:40:33;;;;;;;8.93;1.75;;;;;17.60;99574.00;;;;5013860;28;20290;-80
2023/04/12 08:43:05;;;;;;;6.68;1.13;;;;;17.70;99572.00;;;;5014252;28;20208;-80
2023/04/12 08:45:34;;;;;;;9.20;1.23;;;;;17.80;99572.00;;;;5007699;28;20197;-80
2023/04/12 08:48:15;;;;;;;5.45;1.73;;;;;17.70;99573.00;;;;5011980;28;21086;-80
2023/04/12 08:50:45;;;;;;;5.38;1.27;;;;;17.80;99584.00;;;;5011438;28;20308;-80
2023/04/12 08:53:12;;;;;;;11.00;1.42;;;;;17.90;99576.00;;;;5014732;28;20212;-81
2023/04/12 08:55:40;;;;;;;7.80;1.73;;;;;17.90;99589.00;;;;5013952;28;20199;-82
2023/04/12 08:58:08;;;;;;;8.93;1.77;;;;;18.00;99589.00;;;;5014159;28;20678;-81
2023/04/12 09:00:38;;;;;;;6.90;1.45;;;;;18.00;99591.00;;;;5014008;28;20240;-81
2023/04/12 09:03:05;;;;;;;7.65;1.55;;;;;18.10;99583.00;;;;5005091;28;20205;-80
2023/04/12 09:05:34;;;;;;;6.13;1.55;;;;;18.10;99593.00;;;;5002897;28;20205;-82
2023/04/12 09:08:01;;;;;;;9.55;2.10;;;;;18.10;99593.00;;;;5014165;28;21109;-81
2023/04/12 09:10:32;;;;;;;12.43;1.55;;;;;18.20;99597.00;;;;5013761;28;20193;-82
2023/04/12 09:13:01;;;;;;;6.50;1.30;;;;;18.20;99586.00;;;;5011438;28;20735;-82
2023/04/12 09:15:29;;;;;;;6.80;1.42;;;;;18.30;99584.00;;;;5010304;28;20225;-82
2023/04/12 09:18:08;;;;;;;10.68;1.52;;;;;18.30;99576.00;;;;5010999;28;20287;-83
2023/04/12 09:20:37;;;;;;;9.90;1.50;;;;;18.40;99574.00;;;;4998366;28;20202;-81
2023/04/12 09:23:18;;;;;;;11.15;1.58;;;;;18.40;99571.00;;;;4992077;28;20205;-81
2023/04/12 09:25:50;;;;;;;4.68;1.27;;;;;18.60;99561.00;;;;4996570;28;20192;-80
2023/04/12 09:28:24;;;;;;;6.28;1.52;;;;;18.60;99565.00;;;;5009795;28;20694;-81
2023/04/12 09:30:53;;;;;;;5.90;1.20;;;;;18.70;99568.00;;;;5009983;28;20208;-79
2023/04/12 09:33:25;;;;;;;6.53;1.55;;;;;18.70;99567.00;;;;5011385;28;20205;-80
2023/04/12 09:36:01;;;;;;;6.55;1.80;;;;;18.80;99564.00;;;;5011055;28;20204;-80
2023/04/12 09:38:29;;;;;;;10.75;2.63;;;;;18.90;99563.00;;;;5008235;28;20212;-81
2023/04/12 09:41:00;;;;;;;7.55;1.48;;;;;18.90;99561.00;;;;5004663;28;20666;-82
2023/04/12 09:43:37;;;;;;;8.10;1.48;;;;;18.90;99557.00;;;;5011706;28;20240;-81
2023/04/12 09:46:12;;;;;;;6.43;1.85;;;;;18.90;99561.00;;;;5010808;28;20613;-80
2023/04/12 09:48:40;;;;;;;3.88;1.35;;;;;19.00;99554.00;;;;5009626;28;20669;-80
2023/04/12 09:51:09;;;;;;;6.88;1.70;;;;;19.00;99561.00;;;;5009722;28;20742;-82
2023/04/12 09:53:40;;;;;;;9.35;1.63;;;;;19.10;99564.00;;;;4998820;28;20289;-81
2023/04/12 09:56:09;;;;;;;7.13;1.52;;;;;19.10;99561.00;;;;5008727;28;20197;-83
2023/04/12 09:58:38;;;;;;;6.22;1.50;;;;;19.20;99555.00;;;;5007828;28;20205;-82
2023/04/12 10:01:09;;;;;;;10.23;1.40;;;;;19.20;99554.00;;;;5008818;28;20221;-81
2023/04/12 10:03:37;;;;;;;7.80;1.65;;;;;19.20;99554.00;;;;5007393;28;20224;-82
2023/04/12 10:06:05;;;;;;;5.75;1.92;;;;;19.30;99557.00;;;;5004227;28;20202;-81
2023/04/12 10:08:36;;;;;;;5.18;1.17;;;;;19.30;99560.00;;;;4996749;28;20228;-82
2023/04/12 10:11:05;;;;;;;8.13;1.88;;;;;19.30;99549.00;;;;5002903;28;20594;-81
2023/04/12 10:13:33;;;;;;;5.47;1.38;;;;;19.30;99549.00;;;;5013415;28;20262;-81
2023/04/12 10:16:01;;;;;;;6.13;1.58;;;;;19.40;99544.00;;;;5013069;28;20211;-80
2023/04/12 10:18:30;;;;;;;6.53;1.48;;;;;19.40;99537.00;;;;5008695;28;20205;-81
2023/04/12 10:20:59;;;;;;;4.18;1.27;;;;;19.40;99551.00;;;;5008756;28;20578;-81
2023/04/12 10:23:27;;;;;;;7.68;1.17;;;;;19.50;99543.00;;;;5008797;28;20193;-80
2023/04/12 10:25:56;;;;;;;4.35;1.20;;;;;19.60;99542.00;;;;5009119;28;20248;-81
2023/04/12 10:28:24;;;;;;;10.25;2.22;;;;;19.70;99543.00;;;;4998554;28;20291;-81
2023/04/12 10:30:53;;;;;;;11.00;2.22;;;;;19.70;99547.00;;;;4989876;28;20201;-81
2023/04/12 10:33:26;;;;;;;4.20;1.42;;;;;19.70;99550.00;;;;5007083;28;20706;-81
2023/04/12 10:35:56;;;;;;;6.47;1.73;;;;;19.80;99549.00;;;;5008760;28;20562;-81
2023/04/12 10:38:26;;;;;;;9.70;1.52;;;;;19.80;99556.00;;;;5004410;28;20291;-82
2023/04/12 10:41:19;;;;;;;4.45;1.10;;;;;19.60;99546.00;;;;5009363;28;20208;-81
2023/04/12 10:43:47;;;;;;;5.43;2.13;;;;;19.60;99562.00;;;;5009793;28;20201;-81
2023/04/12 10:46:51;;;;;;;6.25;1.45;;;;;19.40;99562.00;;;;5002734;28;20201;-81
2023/04/12 10:49:19;;;;;;;6.70;1.38;;;;;19.50;99557.00;;;;5009401;28;20247;-80
2023/04/12 10:52:12;;;;;;;3.55;1.15;;;;;19.30;99552.00;;;;5007844;28;20640;-81
2023/04/12 10:54:39;;;;;;;5.45;1.05;;;;;19.30;99553.00;;;;5008184;28;20667;-80
2023/04/12 10:57:28;;;;;;;7.95;1.27;;;;;19.30;99556.00;;;;5005797;28;20205;-82
2023/04/12 10:59:58;;;;;;;4.78;1.42;;;;;19.30;99548.00;;;;5007210;28;20201;-82
2023/04/12 11:02:25;;;;;;;7.95;1.67;;;;;19.30;99554.00;;;;4996373;28;20202;-81
2023/04/12 11:05:07;;;;;;;6.55;1.45;;;;;19.20;99554.00;;;;4990140;28;20205;-81
2023/04/12 11:07:41;;;;;;;8.23;1.52;;;;;19.30;99555.00;;;;4990486;28;20260;-81
2023/04/12 11:10:18;;;;;;;8.25;1.52;;;;;19.40;99557.00;;;;5006193;28;20224;-81
2023/04/12 11:12:54;;;;;;;7.93;1.65;;;;;19.40;99565.00;;;;5004788;28;20225;-82
2023/04/12 11:15:25;;;;;;;5.68;1.90;;;;;19.40;99557.00;;;;5005446;28;20841;-81
2023/04/12 11:17:59;;;;;;;9.35;1.75;;;;;19.40;99561.00;;;;5004316;28;20205;-82
2023/04/12 11:20:27;;;;;;;6.57;1.55;;;;;19.60;99561.00;;;;4996400;28;20578;-80
2023/04/12 11:22:55;;;;;;;4.85;1.20;;;;;19.60;99561.00;;;;5006614;28;20251;-81
2023/04/12 11:25:23;;;;;;;9.10;1.75;;;;;19.70;99569.00;;;;5005684;28;20201;-81
2023/04/12 11:27:53;;;;;;;3.72;1.13;;;;;19.70;99577.00;;;;4998057;28;20191;-81
2023/04/12 11:30:22;;;;;;;6.10;1.25;;;;;19.80;99567.00;;;;5004847;28;20235;-81
2023/04/12 11:32:49;;;;;;;4.90;1.02;;;;;19.90;99572.00;;;;5007648;28;20255;-83
2023/04/12 11:35:19;;;;;;;6.00;1.15;;;;;19.90;99571.00;;;;5004711;28;20205;-81
2023/04/12 11:37:46;;;;;;;4.32;1.10;;;;;20.00;99578.00;;;;4993366;28;20675;-79
2023/04/12 11:40:14;;;;;;;2.92;1.20;;;;;20.00;99583.00;;;;5006939;28;20200;-80
2023/04/12 11:42:41;;;;;;;4.20;1.33;;;;;20.10;99576.00;;;;5003351;28;20200;-79
2023/04/12 11:45:11;;;;;;;2.92;0.75;;;;;20.10;99575.00;;;;5005654;28;20196;-80
2023/04/12 11:47:43;;;;;;;4.43;1.05;;;;;20.10;99577.00;;;;5007081;28;20193;-80
2023/04/12 11:50:10;;;;;;;6.30;1.45;;;;;20.10;99586.00;;;;5005706;28;20271;-79
2023/04/12 11:52:39;;;;;;;5.38;0.98;;;;;20.00;99585.00;;;;5000959;28;20206;-80
2023/04/12 11:55:09;;;;;;;5.63;0.93;;;;;20.00;99583.00;;;;5000624;28;20287;-79
2023/04/12 11:57:38;;;;;;;5.45;1.20;;;;;20.00;99585.00;;;;5003450;28;20651;-79
2023/04/12 12:00:09;;;;;;;7.55;1.65;;;;;20.00;99585.00;;;;5010409;28;20203;-79
2023/04/12 12:02:37;;;;;;;3.63;0.73;;;;;20.10;99586.00;;;;5016144;28;20207;-79
2023/04/12 12:05:07;;;;;;;5.38;0.93;;;;;20.10;99584.00;;;;5009424;28;20581;-79
2023/04/12 12:07:35;;;;;;;3.45;0.88;;;;;20.20;99589.00;;;;5005266;28;20678;-79
2023/04/12 12:10:03;;;;;;;5.93;0.82;;;;;20.30;99584.00;;;;5002393;28;20240;-78
2023/04/12 12:12:33;;;;;;;7.18;1.55;;;;;20.30;99584.00;;;;5007405;28;20221;-79
2023/04/12 12:15:02;;;;;;;5.15;1.10;;;;;20.40;99588.00;;;;5007682;28;20204;-82
2023/04/12 12:17:36;;;;;;;5.82;1.27;;;;;20.40;99588.00;;;;5002632;28;20189;-81
2023/04/12 12:20:04;;;;;;;5.03;0.70;;;;;20.40;99584.00;;;;5006935;28;20211;-81
2023/04/12 12:22:31;;;;;;;1.92;0.93;;;;;20.50;99588.00;;;;5008223;28;20205;-81
2023/04/12 12:25:00;;;;;;;7.68;1.40;;;;;20.50;99580.00;;;;5004216;28;20208;-80
2023/04/12 12:27:36;;;;;;;5.43;0.82;;;;;20.50;99596.00;;;;5004291;28;20700;-81